sensor_id;sensor_type;location;lat;lon;timestamp;P1;durP1;ratioP1;P2;durP2;ratioP2
52838;SDS011;39219;53.678;9.856;2023-05-17T00:01:32;15.88;;;4.38;;
52838;SDS011;39219;53.678;9.856;2023-05-17T00:03:58;18.80;;;4.70;;
52838;SDS011;39219;53.678;9.856;2023-05-17T00:06:25;17.42;;;4.22;;
52838;SDS011;39219;53.678;9.856;2023-05-17T00:08:51;20.80;;;4.18;;
52838;SDS011;39219;53.678;9.856;2023-05-17T00:11:18;19.70;;;4.20;;
52838;SDS011;39219;53.678;9.856;2023-05-17T00:13:45;15.55;;;4.07;;
52838;SDS011;39219;53.678;9.856;2023-05-17T00:16:12;13.82;;;4.25;;
52838;SDS011;39219;53.678;9.856;2023-05-17T00:18:38;16.73;;;4.20;;
52838;SDS011;39219;53.678;9.856;2023-05-17T00:21:05;20.48;;;4.20;;
52838;SDS011;39219;53.678;9.856;2023-05-17T00:23:31;16.80;;;4.07;;
52838;SDS011;39219;53.678;9.856;2023-05-17T00:25:58;16.60;;;3.70;;
52838;SDS011;39219;53.678;9.856;2023-05-17T00:28:24;13.63;;;3.63;;
52838;SDS011;39219;53.678;9.856;2023-05-17T00:30:52;18.90;;;4.00;;
52838;SDS011;39219;53.678;9.856;2023-05-17T00:33:18;16.45;;;3.92;;
52838;SDS011;39219;53.678;9.856;2023-05-17T00:35:45;18.27;;;4.30;;
52838;SDS011;39219;53.678;9.856;2023-05-17T00:38:11;17.63;;;4.55;;
52838;SDS011;39219;53.678;9.856;2023-05-17T00:40:37;17.58;;;3.97;;
52838;SDS011;39219;53.678;9.856;2023-05-17T00:43:04;15.90;;;4.30;;
52838;SDS011;39219;53.678;9.856;2023-05-17T00:45:30;17.65;;;4.40;;
52838;SDS011;39219;53.678;9.856;2023-05-17T00:47:58;16.88;;;4.00;;
52838;SDS011;39219;53.678;9.856;2023-05-17T00:50:25;21.65;;;4.28;;
52838;SDS011;39219;53.678;9.856;2023-05-17T00:52:51;16.75;;;4.15;;
52838;SDS011;39219;53.678;9.856;2023-05-17T00:55:18;15.73;;;4.38;;
52838;SDS011;39219;53.678;9.856;2023-05-17T00:57:45;15.80;;;3.97;;
52838;SDS011;39219;53.678;9.856;2023-05-17T01:00:12;13.32;;;3.90;;
52838;SDS011;39219;53.678;9.856;2023-05-17T01:02:39;17.95;;;4.40;;
52838;SDS011;39219;53.678;9.856;2023-05-17T01:05:07;22.10;;;4.60;;
52838;SDS011;39219;53.678;9.856;2023-05-17T01:07:34;17.80;;;4.40;;
52838;SDS011;39219;53.678;9.856;2023-05-17T01:10:00;23.38;;;4.60;;
52838;SDS011;39219;53.678;9.856;2023-05-17T01:12:31;18.77;;;4.00;;
52838;SDS011;39219;53.678;9.856;2023-05-17T01:15:10;13.45;;;3.75;;
52838;SDS011;39219;53.678;9.856;2023-05-17T01:17:41;17.25;;;3.70;;
52838;SDS011;39219;53.678;9.856;2023-05-17T01:20:22;14.02;;;3.47;;
52838;SDS011;39219;53.678;9.856;2023-05-17T01:22:57;17.83;;;3.53;;
52838;SDS011;39219;53.678;9.856;2023-05-17T01:25:36;15.25;;;4.20;;
52838;SDS011;39219;53.678;9.856;2023-05-17T01:28:13;15.23;;;3.72;;
52838;SDS011;39219;53.678;9.856;2023-05-17T01:30:43;16.67;;;3.85;;
52838;SDS011;39219;53.678;9.856;2023-05-17T01:33:12;17.63;;;3.38;;
52838;SDS011;39219;53.678;9.856;2023-05-17T01:35:39;18.48;;;3.75;;
52838;SDS011;39219;53.678;9.856;2023-05-17T01:38:06;14.82;;;3.50;;
52838;SDS011;39219;53.678;9.856;2023-05-17T01:40:32;14.50;;;3.50;;
52838;SDS011;39219;53.678;9.856;2023-05-17T01:43:03;18.38;;;3.80;;
52838;SDS011;39219;53.678;9.856;2023-05-17T01:45:43;13.23;;;3.30;;
52838;SDS011;39219;53.678;9.856;2023-05-17T01:48:19;14.50;;;3.42;;
52838;SDS011;39219;53.678;9.856;2023-05-17T01:50:49;22.00;;;3.40;;
52838;SDS011;39219;53.678;9.856;2023-05-17T01:53:19;12.15;;;2.92;;
52838;SDS011;39219;53.678;9.856;2023-05-17T01:55:51;13.35;;;2.78;;
52838;SDS011;39219;53.678;9.856;2023-05-17T01:58:23;12.15;;;2.75;;
52838;SDS011;39219;53.678;9.856;2023-05-17T02:00:53;13.95;;;2.83;;
52838;SDS011;39219;53.678;9.856;2023-05-17T02:03:21;12.43;;;3.10;;
52838;SDS011;39219;53.678;9.856;2023-05-17T02:05:48;11.70;;;2.70;;
52838;SDS011;39219;53.678;9.856;2023-05-17T02:08:14;14.05;;;3.15;;
52838;SDS011;39219;53.678;9.856;2023-05-17T02:10:41;15.63;;;3.08;;
52838;SDS011;39219;53.678;9.856;2023-05-17T02:13:07;13.68;;;3.00;;
52838;SDS011;39219;53.678;9.856;2023-05-17T02:15:33;14.25;;;2.88;;
52838;SDS011;39219;53.678;9.856;2023-05-17T02:18:01;12.48;;;3.00;;
52838;SDS011;39219;53.678;9.856;2023-05-17T02:20:28;16.08;;;2.80;;
52838;SDS011;39219;53.678;9.856;2023-05-17T02:22:55;13.73;;;2.63;;
52838;SDS011;39219;53.678;9.856;2023-05-17T02:25:21;15.20;;;2.90;;
52838;SDS011;39219;53.678;9.856;2023-05-17T02:27:48;9.98;;;2.85;;
52838;SDS011;39219;53.678;9.856;2023-05-17T02:30:14;11.45;;;2.90;;
52838;SDS011;39219;53.678;9.856;2023-05-17T02:32:41;14.07;;;2.85;;
52838;SDS011;39219;53.678;9.856;2023-05-17T02:35:09;14.77;;;2.97;;
52838;SDS011;39219;53.678;9.856;2023-05-17T02:37:35;11.02;;;2.70;;
52838;SDS011;39219;53.678;9.856;2023-05-17T02:40:02;11.90;;;3.00;;
52838;SDS011;39219;53.678;9.856;2023-05-17T02:42:32;13.15;;;3.03;;
52838;SDS011;39219;53.678;9.856;2023-05-17T02:44:59;10.45;;;2.58;;
52838;SDS011;39219;53.678;9.856;2023-05-17T02:47:25;12.88;;;3.00;;
52838;SDS011;39219;53.678;9.856;2023-05-17T02:49:52;12.95;;;2.88;;
52838;SDS011;39219;53.678;9.856;2023-05-17T02:52:19;13.93;;;2.63;;
52838;SDS011;39219;53.678;9.856;2023-05-17T02:54:46;13.40;;;2.78;;
52838;SDS011;39219;53.678;9.856;2023-05-17T02:57:12;15.43;;;2.72;;
52838;SDS011;39219;53.678;9.856;2023-05-17T02:59:39;12.32;;;2.60;;
52838;SDS011;39219;53.678;9.856;2023-05-17T03:02:05;8.60;;;2.40;;
52838;SDS011;39219;53.678;9.856;2023-05-17T03:04:32;12.63;;;2.70;;
52838;SDS011;39219;53.678;9.856;2023-05-17T03:06:58;11.02;;;2.50;;
52838;SDS011;39219;53.678;9.856;2023-05-17T03:09:26;12.13;;;2.50;;
52838;SDS011;39219;53.678;9.856;2023-05-17T03:11:53;13.10;;;2.75;;
52838;SDS011;39219;53.678;9.856;2023-05-17T03:14:20;9.85;;;2.45;;
52838;SDS011;39219;53.678;9.856;2023-05-17T03:16:46;15.60;;;2.55;;
52838;SDS011;39219;53.678;9.856;2023-05-17T03:19:13;10.35;;;2.55;;
52838;SDS011;39219;53.678;9.856;2023-05-17T03:21:39;13.00;;;2.72;;
52838;SDS011;39219;53.678;9.856;2023-05-17T03:24:06;10.57;;;2.75;;
52838;SDS011;39219;53.678;9.856;2023-05-17T03:26:34;12.00;;;2.40;;
52838;SDS011;39219;53.678;9.856;2023-05-17T03:29:00;12.30;;;2.40;;
52838;SDS011;39219;53.678;9.856;2023-05-17T03:31:27;15.23;;;2.90;;
52838;SDS011;39219;53.678;9.856;2023-05-17T03:33:53;11.80;;;2.80;;
52838;SDS011;39219;53.678;9.856;2023-05-17T03:36:20;11.10;;;2.50;;
52838;SDS011;39219;53.678;9.856;2023-05-17T03:38:46;13.63;;;2.47;;
52838;SDS011;39219;53.678;9.856;2023-05-17T03:41:13;14.35;;;2.78;;
52838;SDS011;39219;53.678;9.856;2023-05-17T03:43:41;16.58;;;3.00;;
52838;SDS011;39219;53.678;9.856;2023-05-17T03:46:07;9.63;;;2.50;;
52838;SDS011;39219;53.678;9.856;2023-05-17T03:48:34;17.30;;;2.90;;
52838;SDS011;39219;53.678;9.856;2023-05-17T03:51:00;13.95;;;2.80;;
52838;SDS011;39219;53.678;9.856;2023-05-17T03:53:27;16.73;;;3.08;;
52838;SDS011;39219;53.678;9.856;2023-05-17T03:55:53;11.07;;;2.95;;
52838;SDS011;39219;53.678;9.856;2023-05-17T03:58:20;14.48;;;2.88;;
52838;SDS011;39219;53.678;9.856;2023-05-17T04:00:47;14.75;;;2.72;;
52838;SDS011;39219;53.678;9.856;2023-05-17T04:03:14;18.48;;;3.20;;
52838;SDS011;39219;53.678;9.856;2023-05-17T04:05:40;12.05;;;2.40;;
52838;SDS011;39219;53.678;9.856;2023-05-17T04:08:09;12.50;;;2.85;;
52838;SDS011;39219;53.678;9.856;2023-05-17T04:10:35;10.00;;;2.60;;
52838;SDS011;39219;53.678;9.856;2023-05-17T04:13:05;13.48;;;3.00;;
52838;SDS011;39219;53.678;9.856;2023-05-17T04:15:32;12.05;;;2.75;;
52838;SDS011;39219;53.678;9.856;2023-05-17T04:18:00;14.50;;;2.83;;
52838;SDS011;39219;53.678;9.856;2023-05-17T04:20:26;12.02;;;2.72;;
52838;SDS011;39219;53.678;9.856;2023-05-17T04:22:53;12.32;;;2.90;;
52838;SDS011;39219;53.678;9.856;2023-05-17T04:25:19;11.88;;;3.05;;
52838;SDS011;39219;53.678;9.856;2023-05-17T04:27:47;14.00;;;3.83;;
52838;SDS011;39219;53.678;9.856;2023-05-17T04:30:14;11.32;;;2.58;;
52838;SDS011;39219;53.678;9.856;2023-05-17T04:32:41;15.07;;;2.70;;
52838;SDS011;39219;53.678;9.856;2023-05-17T04:35:09;12.30;;;3.05;;
52838;SDS011;39219;53.678;9.856;2023-05-17T04:37:36;16.48;;;3.35;;
52838;SDS011;39219;53.678;9.856;2023-05-17T04:40:05;13.45;;;2.83;;
52838;SDS011;39219;53.678;9.856;2023-05-17T04:42:32;19.85;;;3.50;;
52838;SDS011;39219;53.678;9.856;2023-05-17T04:44:59;14.82;;;2.80;;
52838;SDS011;39219;53.678;9.856;2023-05-17T04:47:26;14.25;;;3.13;;
52838;SDS011;39219;53.678;9.856;2023-05-17T04:49:53;15.70;;;3.08;;
52838;SDS011;39219;53.678;9.856;2023-05-17T04:52:21;16.05;;;3.22;;
52838;SDS011;39219;53.678;9.856;2023-05-17T04:54:48;11.55;;;2.97;;
52838;SDS011;39219;53.678;9.856;2023-05-17T04:57:15;12.35;;;2.75;;
52838;SDS011;39219;53.678;9.856;2023-05-17T04:59:41;12.65;;;2.85;;
52838;SDS011;39219;53.678;9.856;2023-05-17T05:02:08;14.90;;;2.53;;
52838;SDS011;39219;53.678;9.856;2023-05-17T05:04:34;12.98;;;3.00;;
52838;SDS011;39219;53.678;9.856;2023-05-17T05:07:01;14.93;;;2.80;;
52838;SDS011;39219;53.678;9.856;2023-05-17T05:09:28;15.77;;;2.75;;
52838;SDS011;39219;53.678;9.856;2023-05-17T05:11:55;20.10;;;2.92;;
52838;SDS011;39219;53.678;9.856;2023-05-17T05:14:21;13.80;;;2.80;;
52838;SDS011;39219;53.678;9.856;2023-05-17T05:16:48;17.20;;;2.80;;
52838;SDS011;39219;53.678;9.856;2023-05-17T05:19:14;14.05;;;3.00;;
52838;SDS011;39219;53.678;9.856;2023-05-17T05:21:43;16.63;;;3.03;;
52838;SDS011;39219;53.678;9.856;2023-05-17T05:24:09;15.13;;;3.30;;
52838;SDS011;39219;53.678;9.856;2023-05-17T05:26:37;14.40;;;3.13;;
52838;SDS011;39219;53.678;9.856;2023-05-17T05:29:04;18.33;;;3.17;;
52838;SDS011;39219;53.678;9.856;2023-05-17T05:31:30;11.10;;;2.40;;
52838;SDS011;39219;53.678;9.856;2023-05-17T05:33:57;9.88;;;2.60;;
52838;SDS011;39219;53.678;9.856;2023-05-17T05:36:23;17.55;;;3.35;;
52838;SDS011;39219;53.678;9.856;2023-05-17T05:38:50;12.30;;;2.85;;
52838;SDS011;39219;53.678;9.856;2023-05-17T05:41:18;10.88;;;2.50;;
52838;SDS011;39219;53.678;9.856;2023-05-17T05:43:46;11.63;;;2.40;;
52838;SDS011;39219;53.678;9.856;2023-05-17T05:46:12;9.52;;;2.20;;
52838;SDS011;39219;53.678;9.856;2023-05-17T05:48:39;8.38;;;2.17;;
52838;SDS011;39219;53.678;9.856;2023-05-17T05:51:06;9.75;;;2.33;;
52838;SDS011;39219;53.678;9.856;2023-05-17T05:53:33;11.80;;;2.65;;
52838;SDS011;39219;53.678;9.856;2023-05-17T05:55:59;10.63;;;2.47;;
52838;SDS011;39219;53.678;9.856;2023-05-17T05:58:26;12.70;;;2.85;;
52838;SDS011;39219;53.678;9.856;2023-05-17T06:00:53;15.15;;;2.70;;
52838;SDS011;39219;53.678;9.856;2023-05-17T06:03:21;13.48;;;2.65;;
52838;SDS011;39219;53.678;9.856;2023-05-17T06:05:47;11.23;;;2.70;;
52838;SDS011;39219;53.678;9.856;2023-05-17T06:08:14;12.90;;;2.80;;
52838;SDS011;39219;53.678;9.856;2023-05-17T06:10:41;12.70;;;2.75;;
52838;SDS011;39219;53.678;9.856;2023-05-17T06:13:07;9.07;;;2.15;;
52838;SDS011;39219;53.678;9.856;2023-05-17T06:15:34;12.05;;;2.85;;
52838;SDS011;39219;53.678;9.856;2023-05-17T06:18:02;9.35;;;2.25;;
52838;SDS011;39219;53.678;9.856;2023-05-17T06:20:29;14.27;;;2.97;;
52838;SDS011;39219;53.678;9.856;2023-05-17T06:22:55;12.90;;;2.60;;
52838;SDS011;39219;53.678;9.856;2023-05-17T06:25:22;12.02;;;2.55;;
52838;SDS011;39219;53.678;9.856;2023-05-17T06:27:49;10.60;;;2.67;;
52838;SDS011;39219;53.678;9.856;2023-05-17T06:30:15;12.25;;;2.40;;
52838;SDS011;39219;53.678;9.856;2023-05-17T06:32:42;9.98;;;2.17;;
52838;SDS011;39219;53.678;9.856;2023-05-17T06:35:10;11.63;;;2.28;;
52838;SDS011;39219;53.678;9.856;2023-05-17T06:37:36;10.27;;;2.30;;
52838;SDS011;39219;53.678;9.856;2023-05-17T06:40:03;9.23;;;2.42;;
52838;SDS011;39219;53.678;9.856;2023-05-17T06:42:32;10.93;;;2.70;;
52838;SDS011;39219;53.678;9.856;2023-05-17T06:44:59;10.48;;;2.22;;
52838;SDS011;39219;53.678;9.856;2023-05-17T06:47:25;11.07;;;2.30;;
52838;SDS011;39219;53.678;9.856;2023-05-17T06:49:52;9.23;;;2.50;;
52838;SDS011;39219;53.678;9.856;2023-05-17T06:52:20;9.77;;;2.58;;
52838;SDS011;39219;53.678;9.856;2023-05-17T06:54:46;10.98;;;2.50;;
52838;SDS011;39219;53.678;9.856;2023-05-17T06:57:13;10.80;;;2.50;;
52838;SDS011;39219;53.678;9.856;2023-05-17T06:59:39;13.13;;;2.50;;
52838;SDS011;39219;53.678;9.856;2023-05-17T07:02:06;8.20;;;2.35;;
52838;SDS011;39219;53.678;9.856;2023-05-17T07:04:32;13.43;;;2.97;;
52838;SDS011;39219;53.678;9.856;2023-05-17T07:06:59;10.82;;;2.35;;
52838;SDS011;39219;53.678;9.856;2023-05-17T07:09:27;8.85;;;2.35;;
52838;SDS011;39219;53.678;9.856;2023-05-17T07:11:53;8.13;;;2.20;;
52838;SDS011;39219;53.678;9.856;2023-05-17T07:14:20;10.05;;;2.40;;
52838;SDS011;39219;53.678;9.856;2023-05-17T07:16:46;17.92;;;2.92;;
52838;SDS011;39219;53.678;9.856;2023-05-17T07:19:13;10.50;;;2.28;;
52838;SDS011;39219;53.678;9.856;2023-05-17T07:21:39;9.68;;;2.30;;
52838;SDS011;39219;53.678;9.856;2023-05-17T07:24:06;11.57;;;2.17;;
52838;SDS011;39219;53.678;9.856;2023-05-17T07:26:34;9.88;;;2.25;;
52838;SDS011;39219;53.678;9.856;2023-05-17T07:29:01;11.13;;;2.40;;
52838;SDS011;39219;53.678;9.856;2023-05-17T07:31:27;10.43;;;2.00;;
52838;SDS011;39219;53.678;9.856;2023-05-17T07:33:54;8.50;;;2.05;;
52838;SDS011;39219;53.678;9.856;2023-05-17T07:36:20;8.07;;;1.80;;
52838;SDS011;39219;53.678;9.856;2023-05-17T07:38:47;7.47;;;2.35;;
52838;SDS011;39219;53.678;9.856;2023-05-17T07:41:13;9.63;;;2.15;;
52838;SDS011;39219;53.678;9.856;2023-05-17T07:43:42;7.68;;;2.25;;
52838;SDS011;39219;53.678;9.856;2023-05-17T07:46:08;9.80;;;2.20;;
52838;SDS011;39219;53.678;9.856;2023-05-17T07:48:35;8.73;;;2.30;;
52838;SDS011;39219;53.678;9.856;2023-05-17T07:51:01;7.82;;;2.22;;
52838;SDS011;39219;53.678;9.856;2023-05-17T07:53:28;10.63;;;2.30;;
52838;SDS011;39219;53.678;9.856;2023-05-17T07:55:54;9.00;;;2.25;;
52838;SDS011;39219;53.678;9.856;2023-05-17T07:58:21;9.13;;;2.45;;
52838;SDS011;39219;53.678;9.856;2023-05-17T08:00:48;7.95;;;2.20;;
52838;SDS011;39219;53.678;9.856;2023-05-17T08:03:15;6.82;;;2.28;;
52838;SDS011;39219;53.678;9.856;2023-05-17T08:05:42;9.15;;;2.38;;
52838;SDS011;39219;53.678;9.856;2023-05-17T08:08:08;11.75;;;2.50;;
52838;SDS011;39219;53.678;9.856;2023-05-17T08:10:35;10.80;;;2.72;;
52838;SDS011;39219;53.678;9.856;2023-05-17T08:13:01;10.23;;;2.58;;
52838;SDS011;39219;53.678;9.856;2023-05-17T08:15:28;7.85;;;2.42;;
52838;SDS011;39219;53.678;9.856;2023-05-17T08:17:56;8.57;;;2.55;;
52838;SDS011;39219;53.678;9.856;2023-05-17T08:20:22;12.90;;;2.67;;
52838;SDS011;39219;53.678;9.856;2023-05-17T08:22:49;11.20;;;2.65;;
52838;SDS011;39219;53.678;9.856;2023-05-17T08:25:15;12.20;;;2.53;;
52838;SDS011;39219;53.678;9.856;2023-05-17T08:27:42;10.45;;;2.38;;
52838;SDS011;39219;53.678;9.856;2023-05-17T08:30:08;11.45;;;2.53;;
52838;SDS011;39219;53.678;9.856;2023-05-17T08:32:35;8.93;;;2.40;;
52838;SDS011;39219;53.678;9.856;2023-05-17T08:35:03;9.02;;;2.58;;
52838;SDS011;39219;53.678;9.856;2023-05-17T08:37:30;8.70;;;2.60;;
52838;SDS011;39219;53.678;9.856;2023-05-17T08:40:00;10.93;;;2.60;;
52838;SDS011;39219;53.678;9.856;2023-05-17T08:42:26;9.60;;;2.28;;
52838;SDS011;39219;53.678;9.856;2023-05-17T08:44:55;11.45;;;2.72;;
52838;SDS011;39219;53.678;9.856;2023-05-17T08:47:21;9.35;;;2.35;;
52838;SDS011;39219;53.678;9.856;2023-05-17T08:49:53;8.52;;;2.42;;
52838;SDS011;39219;53.678;9.856;2023-05-17T08:52:22;7.75;;;2.33;;
52838;SDS011;39219;53.678;9.856;2023-05-17T08:54:49;8.38;;;2.15;;
52838;SDS011;39219;53.678;9.856;2023-05-17T08:57:16;11.10;;;2.75;;
52838;SDS011;39219;53.678;9.856;2023-05-17T08:59:44;12.73;;;2.47;;
52838;SDS011;39219;53.678;9.856;2023-05-17T09:02:12;7.40;;;2.80;;
52838;SDS011;39219;53.678;9.856;2023-05-17T09:04:39;12.38;;;2.83;;
52838;SDS011;39219;53.678;9.856;2023-05-17T09:07:06;9.20;;;2.38;;
52838;SDS011;39219;53.678;9.856;2023-05-17T09:09:34;11.73;;;2.63;;
52838;SDS011;39219;53.678;9.856;2023-05-17T09:12:01;12.05;;;2.67;;
52838;SDS011;39219;53.678;9.856;2023-05-17T09:14:31;9.77;;;2.35;;
52838;SDS011;39219;53.678;9.856;2023-05-17T09:16:59;13.27;;;2.75;;
52838;SDS011;39219;53.678;9.856;2023-05-17T09:19:26;12.43;;;3.00;;
52838;SDS011;39219;53.678;9.856;2023-05-17T09:21:53;11.55;;;2.22;;
52838;SDS011;39219;53.678;9.856;2023-05-17T09:24:26;10.05;;;2.72;;
52838;SDS011;39219;53.678;9.856;2023-05-17T09:26:55;12.05;;;2.58;;
52838;SDS011;39219;53.678;9.856;2023-05-17T09:29:26;11.18;;;2.90;;
52838;SDS011;39219;53.678;9.856;2023-05-17T09:31:56;10.82;;;2.70;;
52838;SDS011;39219;53.678;9.856;2023-05-17T09:34:36;9.68;;;2.25;;
52838;SDS011;39219;53.678;9.856;2023-05-17T09:37:03;10.60;;;2.63;;
52838;SDS011;39219;53.678;9.856;2023-05-17T09:39:30;9.20;;;2.33;;
52838;SDS011;39219;53.678;9.856;2023-05-17T09:41:58;8.75;;;2.40;;
52838;SDS011;39219;53.678;9.856;2023-05-17T09:44:25;10.90;;;2.65;;
52838;SDS011;39219;53.678;9.856;2023-05-17T09:46:51;9.85;;;2.38;;
52838;SDS011;39219;53.678;9.856;2023-05-17T09:49:18;9.27;;;2.58;;
52838;SDS011;39219;53.678;9.856;2023-05-17T09:51:45;11.02;;;2.55;;
52838;SDS011;39219;53.678;9.856;2023-05-17T09:54:14;7.22;;;2.33;;
52838;SDS011;39219;53.678;9.856;2023-05-17T09:56:41;10.20;;;2.50;;
52838;SDS011;39219;53.678;9.856;2023-05-17T09:59:12;12.15;;;2.70;;
52838;SDS011;39219;53.678;9.856;2023-05-17T10:01:40;8.13;;;2.50;;
52838;SDS011;39219;53.678;9.856;2023-05-17T10:04:08;10.27;;;2.67;;
52838;SDS011;39219;53.678;9.856;2023-05-17T10:06:37;8.60;;;2.40;;
52838;SDS011;39219;53.678;9.856;2023-05-17T10:09:06;11.65;;;3.08;;
52838;SDS011;39219;53.678;9.856;2023-05-17T10:11:37;9.73;;;2.35;;
52838;SDS011;39219;53.678;9.856;2023-05-17T10:14:08;9.93;;;2.20;;
52838;SDS011;39219;53.678;9.856;2023-05-17T10:16:38;11.23;;;2.35;;
52838;SDS011;39219;53.678;9.856;2023-05-17T10:19:04;7.43;;;1.88;;
52838;SDS011;39219;53.678;9.856;2023-05-17T10:21:31;9.00;;;2.35;;
52838;SDS011;39219;53.678;9.856;2023-05-17T10:23:58;8.82;;;1.80;;
52838;SDS011;39219;53.678;9.856;2023-05-17T10:26:26;5.70;;;1.95;;
52838;SDS011;39219;53.678;9.856;2023-05-17T10:28:54;9.93;;;2.30;;
52838;SDS011;39219;53.678;9.856;2023-05-17T10:31:24;7.30;;;2.22;;
52838;SDS011;39219;53.678;9.856;2023-05-17T10:33:54;7.93;;;1.98;;
52838;SDS011;39219;53.678;9.856;2023-05-17T10:36:20;7.22;;;2.05;;
52838;SDS011;39219;53.678;9.856;2023-05-17T10:38:49;8.07;;;1.88;;
52838;SDS011;39219;53.678;9.856;2023-05-17T10:41:16;5.72;;;2.00;;
52838;SDS011;39219;53.678;9.856;2023-05-17T10:43:45;6.95;;;2.40;;
52838;SDS011;39219;53.678;9.856;2023-05-17T10:46:14;7.93;;;2.03;;
52838;SDS011;39219;53.678;9.856;2023-05-17T10:48:42;6.80;;;2.00;;
52838;SDS011;39219;53.678;9.856;2023-05-17T10:51:10;6.65;;;2.20;;
52838;SDS011;39219;53.678;9.856;2023-05-17T10:59:14;7.53;;;1.98;;
52838;SDS011;39219;53.678;9.856;2023-05-17T11:01:58;6.82;;;1.73;;
52838;SDS011;39219;53.678;9.856;2023-05-17T11:04:30;10.07;;;2.40;;
52838;SDS011;39219;53.678;9.856;2023-05-17T11:07:20;7.68;;;1.83;;
52838;SDS011;39219;53.678;9.856;2023-05-17T11:09:50;9.57;;;2.33;;
52838;SDS011;39219;53.678;9.856;2023-05-17T11:12:28;7.47;;;1.88;;
52838;SDS011;39219;53.678;9.856;2023-05-17T11:14:58;6.07;;;1.85;;
52838;SDS011;39219;53.678;9.856;2023-05-17T11:17:26;7.10;;;2.10;;
52838;SDS011;39219;53.678;9.856;2023-05-17T11:20:03;7.95;;;1.90;;
52838;SDS011;39219;53.678;9.856;2023-05-17T11:22:35;7.97;;;2.15;;
52838;SDS011;39219;53.678;9.856;2023-05-17T11:25:07;7.70;;;2.00;;
52838;SDS011;39219;53.678;9.856;2023-05-17T11:27:37;7.47;;;1.98;;
52838;SDS011;39219;53.678;9.856;2023-05-17T11:30:09;8.88;;;2.05;;
52838;SDS011;39219;53.678;9.856;2023-05-17T11:32:45;6.68;;;2.00;;
52838;SDS011;39219;53.678;9.856;2023-05-17T11:35:12;4.75;;;1.30;;
52838;SDS011;39219;53.678;9.856;2023-05-17T11:37:40;8.18;;;1.80;;
52838;SDS011;39219;53.678;9.856;2023-05-17T11:40:09;7.10;;;1.63;;
52838;SDS011;39219;53.678;9.856;2023-05-17T11:42:37;6.78;;;2.00;;
52838;SDS011;39219;53.678;9.856;2023-05-17T11:45:05;5.65;;;1.65;;
52838;SDS011;39219;53.678;9.856;2023-05-17T11:47:32;6.97;;;1.75;;
52838;SDS011;39219;53.678;9.856;2023-05-17T11:49:59;3.53;;;1.80;;
52838;SDS011;39219;53.678;9.856;2023-05-17T11:52:26;10.05;;;2.10;;
52838;SDS011;39219;53.678;9.856;2023-05-17T11:54:55;6.30;;;1.85;;
52838;SDS011;39219;53.678;9.856;2023-05-17T11:57:23;8.20;;;2.17;;
52838;SDS011;39219;53.678;9.856;2023-05-17T11:59:58;8.07;;;2.08;;
52838;SDS011;39219;53.678;9.856;2023-05-17T12:02:25;9.65;;;2.25;;
52838;SDS011;39219;53.678;9.856;2023-05-17T12:04:52;9.52;;;2.55;;
52838;SDS011;39219;53.678;9.856;2023-05-17T12:07:19;6.65;;;2.05;;
52838;SDS011;39219;53.678;9.856;2023-05-17T12:09:45;8.13;;;2.63;;
52838;SDS011;39219;53.678;9.856;2023-05-17T12:12:14;8.48;;;2.30;;
52838;SDS011;39219;53.678;9.856;2023-05-17T12:14:41;9.30;;;2.08;;
52838;SDS011;39219;53.678;9.856;2023-05-17T12:17:08;9.40;;;2.60;;
52838;SDS011;39219;53.678;9.856;2023-05-17T12:19:41;7.80;;;2.40;;
52838;SDS011;39219;53.678;9.856;2023-05-17T12:22:08;9.10;;;2.30;;
52838;SDS011;39219;53.678;9.856;2023-05-17T12:24:37;6.07;;;2.42;;
52838;SDS011;39219;53.678;9.856;2023-05-17T12:27:04;8.10;;;2.10;;
52838;SDS011;39219;53.678;9.856;2023-05-17T12:29:32;8.35;;;2.40;;
52838;SDS011;39219;53.678;9.856;2023-05-17T12:31:59;8.73;;;2.10;;
52838;SDS011;39219;53.678;9.856;2023-05-17T12:34:27;5.57;;;2.03;;
52838;SDS011;39219;53.678;9.856;2023-05-17T12:36:54;7.20;;;1.80;;
52838;SDS011;39219;53.678;9.856;2023-05-17T12:39:21;4.88;;;1.80;;
52838;SDS011;39219;53.678;9.856;2023-05-17T12:41:48;8.20;;;1.92;;
52838;SDS011;39219;53.678;9.856;2023-05-17T12:44:15;8.15;;;2.35;;
52838;SDS011;39219;53.678;9.856;2023-05-17T12:46:44;6.32;;;1.70;;
52838;SDS011;39219;53.678;9.856;2023-05-17T12:49:14;9.65;;;2.10;;
52838;SDS011;39219;53.678;9.856;2023-05-17T12:51:41;8.38;;;2.05;;
52838;SDS011;39219;53.678;9.856;2023-05-17T12:54:09;8.50;;;2.15;;
52838;SDS011;39219;53.678;9.856;2023-05-17T12:56:36;8.85;;;2.60;;
52838;SDS011;39219;53.678;9.856;2023-05-17T12:59:03;6.45;;;2.25;;
52838;SDS011;39219;53.678;9.856;2023-05-17T13:01:34;5.80;;;2.20;;
52838;SDS011;39219;53.678;9.856;2023-05-17T13:04:02;7.85;;;1.90;;
52838;SDS011;39219;53.678;9.856;2023-05-17T13:06:41;8.85;;;2.13;;
52838;SDS011;39219;53.678;9.856;2023-05-17T13:09:09;8.00;;;1.80;;
52838;SDS011;39219;53.678;9.856;2023-05-17T13:11:35;8.85;;;2.50;;
52838;SDS011;39219;53.678;9.856;2023-05-17T13:14:05;8.93;;;2.10;;
52838;SDS011;39219;53.678;9.856;2023-05-17T13:16:31;9.43;;;2.33;;
52838;SDS011;39219;53.678;9.856;2023-05-17T13:18:59;9.68;;;1.92;;
52838;SDS011;39219;53.678;9.856;2023-05-17T13:21:27;8.23;;;2.10;;
52838;SDS011;39219;53.678;9.856;2023-05-17T13:23:53;7.28;;;2.03;;
52838;SDS011;39219;53.678;9.856;2023-05-17T13:26:19;9.88;;;2.30;;
52838;SDS011;39219;53.678;9.856;2023-05-17T13:28:46;12.23;;;2.83;;
52838;SDS011;39219;53.678;9.856;2023-05-17T13:31:13;10.40;;;2.53;;
52838;SDS011;39219;53.678;9.856;2023-05-17T13:33:40;9.55;;;2.40;;
52838;SDS011;39219;53.678;9.856;2023-05-17T13:36:06;11.13;;;2.38;;
52838;SDS011;39219;53.678;9.856;2023-05-17T13:38:34;11.93;;;2.67;;
52838;SDS011;39219;53.678;9.856;2023-05-17T13:41:01;11.43;;;2.75;;
52838;SDS011;39219;53.678;9.856;2023-05-17T13:43:27;6.10;;;2.20;;
52838;SDS011;39219;53.678;9.856;2023-05-17T13:45:54;10.13;;;2.72;;
52838;SDS011;39219;53.678;9.856;2023-05-17T13:48:23;7.78;;;2.10;;
52838;SDS011;39219;53.678;9.856;2023-05-17T13:50:49;7.00;;;2.47;;
52838;SDS011;39219;53.678;9.856;2023-05-17T13:53:16;8.23;;;2.28;;
52838;SDS011;39219;53.678;9.856;2023-05-17T13:55:44;12.38;;;2.83;;
52838;SDS011;39219;53.678;9.856;2023-05-17T13:58:10;13.85;;;2.53;;
52838;SDS011;39219;53.678;9.856;2023-05-17T14:00:37;9.52;;;2.25;;
52838;SDS011;39219;53.678;9.856;2023-05-17T14:03:05;8.15;;;2.10;;
52838;SDS011;39219;53.678;9.856;2023-05-17T14:05:31;8.75;;;2.45;;
52838;SDS011;39219;53.678;9.856;2023-05-17T14:08:00;7.00;;;1.90;;
52838;SDS011;39219;53.678;9.856;2023-05-17T14:10:26;7.55;;;2.60;;
52838;SDS011;39219;53.678;9.856;2023-05-17T14:12:54;8.40;;;2.10;;
52838;SDS011;39219;53.678;9.856;2023-05-17T14:15:21;7.15;;;2.30;;
52838;SDS011;39219;53.678;9.856;2023-05-17T14:17:48;8.35;;;2.30;;
52838;SDS011;39219;53.678;9.856;2023-05-17T14:20:15;8.43;;;2.45;;
52838;SDS011;39219;53.678;9.856;2023-05-17T14:22:42;5.30;;;1.80;;
52838;SDS011;39219;53.678;9.856;2023-05-17T14:25:08;6.47;;;1.90;;
52838;SDS011;39219;53.678;9.856;2023-05-17T14:27:36;6.05;;;1.75;;
52838;SDS011;39219;53.678;9.856;2023-05-17T14:30:04;6.47;;;2.15;;
52838;SDS011;39219;53.678;9.856;2023-05-17T14:32:32;11.05;;;2.05;;
52838;SDS011;39219;53.678;9.856;2023-05-17T14:34:59;9.52;;;2.20;;
52838;SDS011;39219;53.678;9.856;2023-05-17T14:37:25;8.40;;;2.22;;
52838;SDS011;39219;53.678;9.856;2023-05-17T14:39:52;8.45;;;2.20;;
52838;SDS011;39219;53.678;9.856;2023-05-17T14:42:18;9.23;;;2.60;;
52838;SDS011;39219;53.678;9.856;2023-05-17T14:44:45;9.43;;;2.20;;
52838;SDS011;39219;53.678;9.856;2023-05-17T14:47:12;8.80;;;2.22;;
52838;SDS011;39219;53.678;9.856;2023-05-17T14:49:40;10.45;;;2.33;;